createdAt,value
2018-08-11T00:00:35.384Z,100683.81
2018-08-11T00:03:11.002Z,100684.53
2018-08-11T00:05:42.342Z,100678.62
2018-08-11T00:08:13.597Z,100678.98
2018-08-11T00:10:44.555Z,100677.47
2018-08-11T00:13:15.531Z,100679.86
2018-08-11T00:15:46.512Z,100679.30
2018-08-11T00:18:17.481Z,100675.01
2018-08-11T00:20:48.483Z,100670.59
2018-08-11T00:23:19.505Z,100664.45
2018-08-11T00:25:50.602Z,100665.45
2018-08-11T00:28:21.578Z,100666.74
2018-08-11T00:30:52.545Z,100663.80
2018-08-11T00:33:23.495Z,100665.41
2018-08-11T00:35:54.517Z,100663.98
2018-08-11T00:38:25.489Z,100661.75
2018-08-11T00:40:56.493Z,100664.48
2018-08-11T00:43:27.501Z,100653.77
2018-08-11T00:45:58.489Z,100661.66
2018-08-11T00:48:29.522Z,100663.69
2018-08-11T00:51:00.488Z,100669.03
2018-08-11T00:53:31.488Z,100666.87
2018-08-11T00:56:02.522Z,100666.85
2018-08-11T00:58:33.499Z,100667.03
2018-08-11T01:01:04.500Z,100668.02
2018-08-11T01:03:35.480Z,100669.20
2018-08-11T01:06:06.503Z,100670.72
2018-08-11T01:08:37.491Z,100671.20
2018-08-11T01:11:08.545Z,100668.19
2018-08-11T01:13:39.484Z,100668.20
2018-08-11T01:16:10.490Z,100675.22
2018-08-11T01:18:41.480Z,100676.20
2018-08-11T01:21:12.481Z,100671.69
2018-08-11T01:23:43.484Z,100683.25
2018-08-11T01:26:14.490Z,100675.88
2018-08-11T01:28:45.488Z,100670.53
2018-08-11T01:31:16.471Z,100672.21
2018-08-11T01:33:47.481Z,100677.72
2018-08-11T01:36:18.493Z,100670.85
2018-08-11T01:38:49.519Z,100674.84
2018-08-11T01:41:20.492Z,100673.20
2018-08-11T01:43:51.505Z,100676.22
2018-08-11T01:46:22.476Z,100671.86
2018-08-11T01:48:53.480Z,100671.67
2018-08-11T01:51:24.516Z,100663.00
2018-08-11T01:53:55.507Z,100665.34
2018-08-11T01:56:26.723Z,100667.85
2018-08-11T01:58:57.568Z,100663.16
2018-08-11T02:01:28.463Z,100658.32
2018-08-11T02:03:59.472Z,100652.12
2018-08-11T02:06:30.461Z,100660.00
2018-08-11T02:09:01.505Z,100667.02
2018-08-11T02:11:32.487Z,100666.59
2018-08-11T02:14:03.514Z,100666.45
2018-08-11T02:16:34.509Z,100663.75
2018-08-11T02:19:05.532Z,100655.64
2018-08-11T02:21:36.529Z,100653.13
2018-08-11T02:24:07.577Z,100655.48
2018-08-11T02:26:38.492Z,100649.97
2018-08-11T02:29:09.500Z,100656.16
2018-08-11T02:31:40.525Z,100657.16
2018-08-11T02:34:11.501Z,100657.80
2018-08-11T02:36:42.564Z,100657.64
2018-08-11T02:39:15.456Z,100657.66
2018-08-11T02:41:46.487Z,100647.46
2018-08-11T02:44:17.452Z,100653.30
2018-08-11T02:46:48.485Z,100646.11
2018-08-11T02:49:19.495Z,100657.33
2018-08-11T02:51:50.473Z,100657.66
2018-08-11T02:54:21.480Z,100658.98
2018-08-11T02:56:52.505Z,100657.30
2018-08-11T02:59:25.443Z,100659.83
2018-08-11T03:01:56.500Z,100659.81
2018-08-11T03:04:27.472Z,100663.00
2018-08-11T03:06:58.434Z,100659.83
2018-08-11T03:09:29.420Z,100663.67
2018-08-11T03:12:00.490Z,100663.68
2018-08-11T03:14:31.456Z,100665.68
2018-08-11T03:17:02.508Z,100663.66
2018-08-11T03:19:33.494Z,100670.55
2018-08-11T03:24:50.429Z,100669.53
2018-08-11T03:27:21.485Z,100672.56
2018-08-11T03:29:52.491Z,100670.19
2018-08-11T03:32:23.441Z,100672.88
2018-08-11T03:34:54.534Z,100671.37
2018-08-11T03:37:25.445Z,100671.73
2018-08-11T03:39:56.483Z,100678.91
2018-08-11T03:42:27.462Z,100685.77
2018-08-11T03:44:58.444Z,100689.27
2018-08-11T03:47:29.488Z,100692.47
2018-08-11T03:50:00.848Z,100689.80
2018-08-11T03:52:31.625Z,100692.80
2018-08-11T03:55:02.505Z,100694.16
2018-08-11T03:57:33.489Z,100690.31
2018-08-11T04:00:06.018Z,100694.31
2018-08-11T04:02:37.301Z,100687.96
2018-08-11T04:05:08.380Z,100685.95
2018-08-11T04:07:39.490Z,100690.62
2018-08-11T04:10:10.480Z,100694.83
2018-08-11T04:12:41.450Z,100699.67
2018-08-11T04:15:12.477Z,100706.17
2018-08-11T04:17:43.484Z,100705.00
2018-08-11T04:20:14.776Z,100703.00
2018-08-11T04:22:45.564Z,100701.48
2018-08-11T04:25:16.500Z,100702.01
2018-08-11T04:27:47.504Z,100706.01
2018-08-11T04:30:18.468Z,100713.34
2018-08-11T04:32:49.462Z,100710.97
2018-08-11T04:35:20.472Z,100707.67
2018-08-11T04:37:51.457Z,100711.45
2018-08-11T04:40:22.572Z,100709.19
2018-08-11T04:42:53.466Z,100707.60
2018-08-11T04:45:24.461Z,100708.98
2018-08-11T04:47:55.538Z,100713.34
2018-08-11T04:50:26.498Z,100714.13
2018-08-11T04:52:57.485Z,100715.94
2018-08-11T04:55:28.749Z,100716.38
2018-08-11T04:57:59.593Z,100714.75
2018-08-11T05:00:30.493Z,100720.56
2018-08-11T05:03:01.461Z,100713.69
2018-08-11T05:05:32.439Z,100719.59
2018-08-11T05:08:03.469Z,100721.33
2018-08-11T05:10:34.448Z,100720.48
2018-08-11T05:13:05.514Z,100726.39
2018-08-11T05:15:36.468Z,100727.23
2018-08-11T05:18:07.635Z,100725.08
2018-08-11T05:20:38.480Z,100732.45
2018-08-11T05:23:09.451Z,100735.79
2018-08-11T05:25:40.469Z,100731.94
2018-08-11T05:28:11.473Z,100733.76
2018-08-11T05:30:42.484Z,100732.30
2018-08-11T05:33:13.527Z,100740.14
2018-08-11T05:35:44.490Z,100735.63
2018-08-11T05:38:15.464Z,100741.87
2018-08-11T05:40:46.485Z,100736.19
2018-08-11T05:43:17.480Z,100742.67
2018-08-11T05:45:48.489Z,100748.38
2018-08-11T05:48:19.449Z,100752.56
2018-08-11T05:50:50.492Z,100754.55
2018-08-11T05:53:21.445Z,100751.54
2018-08-11T05:55:52.494Z,100759.43
2018-08-11T05:58:23.519Z,100749.37
2018-08-11T06:00:54.504Z,100751.88
2018-08-11T06:03:25.685Z,100753.85
2018-08-11T06:05:56.540Z,100756.39
2018-08-11T06:08:27.465Z,100755.27
2018-08-11T06:10:58.494Z,100751.91
2018-08-11T06:13:29.501Z,100760.59
2018-08-11T06:16:00.524Z,100754.93
2018-08-11T06:18:31.578Z,100761.07
2018-08-11T06:21:02.565Z,100756.77
2018-08-11T06:23:33.472Z,100766.66
2018-08-11T06:26:04.565Z,100768.50
2018-08-11T06:28:35.499Z,100770.72
2018-08-11T06:31:06.521Z,100773.34
2018-08-11T06:33:38.502Z,100777.73
2018-08-11T06:36:09.670Z,100783.58
2018-08-11T06:38:40.663Z,100789.08
2018-08-11T06:41:11.534Z,100787.80
2018-08-11T06:43:42.688Z,100787.47
2018-08-11T06:46:13.550Z,100790.98
2018-08-11T06:48:44.486Z,100793.27
2018-08-11T06:51:15.510Z,100787.80
2018-08-11T06:53:46.509Z,100792.58
2018-08-11T06:56:17.556Z,100792.50
2018-08-11T06:58:48.554Z,100799.44
2018-08-11T07:01:19.550Z,100800.45
2018-08-11T07:03:50.632Z,100797.36
2018-08-11T07:06:21.969Z,100803.61
2018-08-11T07:08:53.564Z,100797.91
2018-08-11T07:11:25.454Z,100794.67
2018-08-11T07:13:56.487Z,100800.53
2018-08-11T07:16:27.473Z,100795.22
2018-08-11T07:18:58.504Z,100791.02
2018-08-11T07:21:29.506Z,100796.95
2018-08-11T07:24:01.476Z,100798.98
2018-08-11T07:26:32.678Z,100794.81
2018-08-11T07:29:03.602Z,100799.34
2018-08-11T07:31:34.605Z,100805.89
2018-08-11T07:34:05.570Z,100789.48
2018-08-11T07:36:36.609Z,100798.30
2018-08-11T07:39:10.026Z,100789.09
2018-08-11T07:41:41.377Z,100792.98
2018-08-11T07:44:12.489Z,100784.92
2018-08-11T07:46:43.495Z,100792.64
2018-08-11T07:49:14.493Z,100786.90
2018-08-11T07:51:45.497Z,100792.39
2018-08-11T07:54:16.521Z,100799.32
2018-08-11T07:56:47.485Z,100798.97
2018-08-11T07:59:18.460Z,100795.80
2018-08-11T08:01:49.489Z,100782.81
2018-08-11T08:04:21.228Z,100793.91
2018-08-11T08:06:52.368Z,100792.03
2018-08-11T08:09:23.452Z,100788.19
2018-08-11T08:11:54.480Z,100787.17
2018-08-11T08:14:25.412Z,100780.34
2018-08-11T08:16:56.453Z,100780.73
2018-08-11T08:19:27.545Z,100777.31
2018-08-11T08:21:58.525Z,100776.58
2018-08-11T08:24:29.425Z,100778.62
2018-08-11T08:27:00.573Z,100781.12
2018-08-11T08:29:32.393Z,100771.98
2018-08-11T08:32:03.533Z,100771.23
2018-08-11T08:34:34.565Z,100770.71
2018-08-11T08:37:06.284Z,100769.23
2018-08-11T08:39:36.368Z,100765.45
2018-08-11T08:42:07.505Z,100762.17
2018-08-11T08:44:38.432Z,100762.56
2018-08-11T08:47:10.345Z,100757.40
2018-08-11T08:49:41.353Z,100759.32
2018-08-11T08:52:12.386Z,100763.73
2018-08-11T08:54:43.502Z,100760.30
2018-08-11T08:57:14.607Z,100757.80
2018-08-11T08:59:45.579Z,100751.68
2018-08-11T09:02:16.602Z,100761.73
2018-08-11T09:04:47.731Z,100756.27
2018-08-11T09:07:18.577Z,100756.88
2018-08-11T09:09:49.501Z,100748.30
2018-08-11T09:12:20.525Z,100747.55
2018-08-11T09:14:51.518Z,100747.08
2018-08-11T09:17:22.559Z,100750.78
2018-08-11T09:19:54.035Z,100749.73
2018-08-11T09:22:25.369Z,100745.11
2018-08-11T09:24:56.442Z,100753.53
2018-08-11T09:27:27.569Z,100754.00
2018-08-11T09:29:58.519Z,100750.80
2018-08-11T09:32:29.683Z,100748.31
2018-08-11T09:35:00.596Z,100760.52
2018-08-11T09:37:31.557Z,100753.08
2018-08-11T09:40:02.489Z,100749.02
2018-08-11T09:42:33.533Z,100747.73
2018-08-11T09:45:04.493Z,100741.53
2018-08-11T09:47:35.385Z,100744.95
2018-08-11T09:50:06.515Z,100747.44
2018-08-11T09:52:37.552Z,100743.76
2018-08-11T09:55:08.563Z,100731.95
2018-08-11T09:57:39.532Z,100738.66
2018-08-11T10:00:10.804Z,100741.65
2018-08-11T10:02:41.593Z,100742.80
2018-08-11T10:05:12.565Z,100745.67
2018-08-11T10:07:43.480Z,100742.24
2018-08-11T10:10:14.457Z,100738.36
2018-08-11T10:12:45.473Z,100728.21
2018-08-11T10:15:16.634Z,100735.45
2018-08-11T10:17:47.500Z,100739.13
2018-08-11T10:20:18.500Z,100739.05
2018-08-11T10:22:49.517Z,100741.69
2018-08-11T10:25:20.527Z,100733.62
2018-08-11T10:27:51.555Z,100734.00
2018-08-11T10:30:22.469Z,100724.25
2018-08-11T10:32:54.839Z,100733.78
2018-08-11T10:35:25.629Z,100730.34
2018-08-11T10:37:56.658Z,100727.56
2018-08-11T10:40:27.527Z,100730.94
2018-08-11T10:42:58.473Z,100720.04
2018-08-11T10:45:29.497Z,100712.25
2018-08-11T10:48:00.461Z,100717.78
2018-08-11T10:50:31.485Z,100717.05
2018-08-11T10:53:02.465Z,100709.09
2018-08-11T10:58:17.564Z,100712.45
2018-08-11T11:00:48.517Z,100716.30
2018-08-11T11:03:20.292Z,100716.38
2018-08-11T11:05:51.513Z,100717.44
2018-08-11T11:08:22.622Z,100707.74
2018-08-11T11:10:53.598Z,100709.32
2018-08-11T11:13:24.489Z,100712.58
2018-08-11T11:15:55.473Z,100725.44
2018-08-11T11:18:26.490Z,100722.20
2018-08-11T11:20:57.687Z,100706.50
2018-08-11T11:23:28.511Z,100707.95
2018-08-11T11:25:59.497Z,100707.83
2018-08-11T11:28:30.529Z,100700.41
2018-08-11T11:31:01.494Z,100702.31
2018-08-11T11:33:32.540Z,100692.69
2018-08-11T11:36:03.483Z,100694.72
2018-08-11T11:38:34.513Z,100693.66
2018-08-11T11:41:05.504Z,100685.48
2018-08-11T11:43:36.497Z,100693.61
2018-08-11T11:46:07.589Z,100692.13
2018-08-11T11:48:38.558Z,100686.12
2018-08-11T11:51:09.577Z,100683.40
2018-08-11T11:53:40.521Z,100703.94
2018-08-11T11:56:11.485Z,100696.11
2018-08-11T11:58:42.526Z,100690.16
2018-08-11T12:01:13.495Z,100695.79
2018-08-11T12:03:44.492Z,100686.06
2018-08-11T12:06:15.529Z,100691.98
2018-08-11T12:08:46.525Z,100689.46
2018-08-11T12:11:17.513Z,100695.88
2018-08-11T12:13:48.475Z,100690.07
2018-08-11T12:16:19.496Z,100685.89
2018-08-11T12:18:50.498Z,100686.09
2018-08-11T12:21:21.492Z,100686.97
2018-08-11T12:23:52.530Z,100694.06
2018-08-11T12:26:23.509Z,100694.77
2018-08-11T12:28:54.502Z,100676.09
2018-08-11T12:31:25.502Z,100683.44
2018-08-11T12:33:56.757Z,100678.72
2018-08-11T12:36:27.634Z,100666.81
2018-08-11T12:38:58.554Z,100665.74
2018-08-11T12:41:29.500Z,100670.50
2018-08-11T12:44:00.518Z,100662.07
2018-08-11T12:46:31.509Z,100670.73
2018-08-11T12:49:02.677Z,100664.83
2018-08-11T12:51:33.557Z,100661.77
2018-08-11T12:54:04.564Z,100671.33
2018-08-11T12:56:35.505Z,100673.70
2018-08-11T12:59:06.736Z,100658.89
2018-08-11T13:01:37.619Z,100666.83
2018-08-11T13:04:09.175Z,100672.23
2018-08-11T13:06:40.390Z,100666.66
2018-08-11T13:09:12.326Z,100668.96
2018-08-11T13:11:43.397Z,100655.77
2018-08-11T13:14:14.533Z,100666.67
2018-08-11T13:16:45.506Z,100670.04
2018-08-11T13:19:16.517Z,100681.51
2018-08-11T13:21:47.501Z,100675.55
2018-08-11T13:24:18.521Z,100676.83
2018-08-11T13:26:49.500Z,100666.77
2018-08-11T13:29:20.558Z,100663.69
2018-08-11T13:31:51.510Z,100663.70
2018-08-11T13:34:22.525Z,100662.69
2018-08-11T13:36:53.529Z,100668.59
2018-08-11T13:39:24.509Z,100665.30
2018-08-11T13:41:55.577Z,100657.24
2018-08-11T13:44:26.499Z,100668.38
2018-08-11T13:46:57.525Z,100666.53
2018-08-11T13:49:28.517Z,100654.03
2018-08-11T13:51:59.519Z,100651.81
2018-08-11T13:54:30.529Z,100655.45
2018-08-11T13:57:01.510Z,100652.44
2018-08-11T13:59:32.541Z,100651.20
2018-08-11T14:02:03.585Z,100656.94
2018-08-11T14:04:34.514Z,100648.80
2018-08-11T14:07:05.773Z,100646.56
2018-08-11T14:09:36.586Z,100641.05
2018-08-11T14:12:07.493Z,100642.05
2018-08-11T14:14:38.489Z,100637.54
2018-08-11T14:17:10.376Z,100625.65
2018-08-11T14:19:41.360Z,100635.36
2018-08-11T14:22:12.399Z,100642.88
2018-08-11T14:24:43.533Z,100633.00
2018-08-11T14:27:14.540Z,100627.52
2018-08-11T14:29:45.546Z,100625.09
2018-08-11T14:32:16.508Z,100626.99
2018-08-11T14:34:48.297Z,100620.01
2018-08-11T14:37:19.404Z,100624.00
2018-08-11T14:39:50.496Z,100616.52
2018-08-11T14:42:21.475Z,100609.01
2018-08-11T14:44:52.673Z,100609.05
2018-08-11T14:47:23.533Z,100614.83
2018-08-11T14:49:54.520Z,100622.66
2018-08-11T14:52:25.490Z,100622.03
2018-08-11T14:54:56.501Z,100610.73
2018-08-11T14:57:27.512Z,100607.81
2018-08-11T14:59:58.504Z,100603.72
2018-08-11T15:02:29.464Z,100598.11
2018-08-11T15:05:00.499Z,100597.09
2018-08-11T15:07:31.449Z,100598.06
2018-08-11T15:10:02.517Z,100595.28
2018-08-11T15:12:33.468Z,100597.52
2018-08-11T15:15:05.389Z,100597.53
2018-08-11T15:17:36.492Z,100597.81
2018-08-11T15:20:08.750Z,100595.94
2018-08-11T15:22:40.398Z,100590.46
2018-08-11T15:25:11.473Z,100584.36
2018-08-11T15:27:42.474Z,100585.92
2018-08-11T15:30:13.633Z,100579.06
2018-08-11T15:32:44.506Z,100581.86
2018-08-11T15:35:15.493Z,100594.38
2018-08-11T15:37:46.459Z,100586.70
2018-08-11T15:40:17.492Z,100580.38
2018-08-11T15:42:48.485Z,100590.28
2018-08-11T15:45:19.629Z,100595.17
2018-08-11T15:47:50.468Z,100600.42
2018-08-11T15:50:21.622Z,100596.41
2018-08-11T15:52:52.464Z,100590.88
2018-08-11T15:55:23.505Z,100591.67
2018-08-11T15:57:54.505Z,100586.95
2018-08-11T16:00:25.494Z,100588.75
2018-08-11T16:02:56.797Z,100584.86
2018-08-11T16:05:27.552Z,100588.54
2018-08-11T16:07:58.488Z,100589.16
2018-08-11T16:10:29.484Z,100587.58
2018-08-11T16:13:00.500Z,100598.45
2018-08-11T16:15:31.606Z,100589.98
2018-08-11T16:18:02.538Z,100592.87
2018-08-11T16:20:33.493Z,100589.45
2018-08-11T16:23:04.694Z,100584.36
2018-08-11T16:25:35.609Z,100591.23
2018-08-11T16:28:07.347Z,100590.92
2018-08-11T16:30:38.394Z,100598.62
2018-08-11T16:33:09.507Z,100592.05
2018-08-11T16:35:40.557Z,100594.90
2018-08-11T16:38:11.489Z,100590.63
2018-08-11T16:40:42.526Z,100583.85
2018-08-11T16:43:13.517Z,100582.93
2018-08-11T16:45:44.566Z,100585.97
2018-08-11T16:48:15.550Z,100579.06
2018-08-11T16:50:46.512Z,100579.39
2018-08-11T16:53:17.539Z,100579.95
2018-08-11T16:55:48.494Z,100577.52
2018-08-11T16:58:19.486Z,100573.30
2018-08-11T17:00:50.555Z,100570.76
2018-08-11T17:03:21.493Z,100571.89
2018-08-11T17:05:52.586Z,100569.52
2018-08-11T17:08:23.487Z,100573.84
2018-08-11T17:10:54.484Z,100578.21
2018-08-11T17:13:25.469Z,100580.18
2018-08-11T17:15:56.489Z,100585.94
2018-08-11T17:18:27.496Z,100580.61
2018-08-11T17:23:42.506Z,100576.23
2018-08-11T17:26:13.623Z,100578.23
2018-08-11T17:28:44.562Z,100574.86
2018-08-11T17:31:15.537Z,100575.59
2018-08-11T17:33:46.535Z,100581.08
2018-08-11T17:36:17.530Z,100578.41
2018-08-11T17:41:54.500Z,100573.81
2018-08-11T17:44:25.509Z,100566.03
2018-08-11T17:46:56.538Z,100573.30
2018-08-11T17:49:27.505Z,100580.48
2018-08-11T17:51:58.576Z,100580.13
2018-08-11T17:54:29.490Z,100582.02
2018-08-11T17:57:00.515Z,100577.02
2018-08-11T17:59:31.481Z,100575.87
2018-08-11T18:02:02.510Z,100580.25
2018-08-11T18:04:33.609Z,100584.70
2018-08-11T18:07:04.606Z,100577.22
2018-08-11T18:09:35.522Z,100580.64
2018-08-11T18:12:06.602Z,100579.33
2018-08-11T18:14:37.678Z,100579.37
2018-08-11T18:17:26.479Z,100579.47
2018-08-11T18:19:57.656Z,100580.39
2018-08-11T18:22:29.368Z,100582.30
2018-08-11T18:25:00.712Z,100576.98
2018-08-11T18:27:31.675Z,100575.92
2018-08-11T18:30:02.554Z,100584.75
2018-08-11T18:32:33.598Z,100580.46
2018-08-11T18:35:04.697Z,100581.09
2018-08-11T18:39:27.498Z,100588.56
2018-08-11T18:41:58.493Z,100589.41
2018-08-11T18:44:29.517Z,100590.78
2018-08-11T18:47:00.532Z,100592.69
2018-08-11T18:49:32.604Z,100593.56
2018-08-11T18:52:03.808Z,100596.59
2018-08-11T18:54:34.637Z,100599.14
2018-08-11T18:57:06.358Z,100598.98
2018-08-11T18:59:37.569Z,100599.70
2018-08-11T19:02:08.562Z,100593.61
2018-08-11T19:04:39.488Z,100602.41
2018-08-11T19:07:10.501Z,100604.23
2018-08-11T19:09:41.490Z,100610.84
2018-08-11T19:12:12.529Z,100613.78
2018-08-11T19:14:43.494Z,100618.09
2018-08-11T19:17:14.610Z,100617.02
2018-08-11T19:19:45.686Z,100616.67
2018-08-11T19:22:16.525Z,100615.33
2018-08-11T19:24:47.509Z,100616.87
2018-08-11T19:27:18.562Z,100621.19
2018-08-11T19:29:49.493Z,100625.45
2018-08-11T19:32:20.543Z,100619.72
2018-08-11T19:34:51.501Z,100622.42
2018-08-11T19:37:22.517Z,100626.98
2018-08-11T19:39:53.522Z,100618.65
2018-08-11T19:42:24.527Z,100619.59
2018-08-11T19:44:55.505Z,100619.31
2018-08-11T19:47:26.650Z,100625.02
2018-08-11T19:49:57.542Z,100624.38
2018-08-11T19:52:28.485Z,100615.65
2018-08-11T19:54:59.501Z,100614.70
2018-08-11T19:57:30.474Z,100618.73
2018-08-11T20:00:01.513Z,100620.67
2018-08-11T20:02:32.514Z,100621.18
2018-08-11T20:05:03.524Z,100622.12
2018-08-11T20:07:34.491Z,100624.43
2018-08-11T20:10:06.616Z,100628.35
2018-08-11T20:12:38.449Z,100625.67
2018-08-11T20:15:11.362Z,100631.94
2018-08-11T20:17:42.397Z,100631.78
2018-08-11T20:20:13.486Z,100631.53
2018-08-11T20:22:44.488Z,100629.28
2018-08-11T20:25:15.591Z,100627.14
2018-08-11T20:27:46.525Z,100625.30
2018-08-11T20:30:17.506Z,100633.55
2018-08-11T20:32:48.504Z,100635.20
2018-08-11T20:35:20.534Z,100630.95
2018-08-11T20:37:51.508Z,100639.41
2018-08-11T20:40:22.508Z,100642.56
2018-08-11T20:42:53.514Z,100637.30
2018-08-11T20:45:24.593Z,100634.87
2018-08-11T20:47:55.560Z,100637.30
2018-08-11T20:50:26.521Z,100641.47
2018-08-11T20:52:57.524Z,100634.97
2018-08-11T20:55:28.497Z,100639.03
2018-08-11T20:57:59.495Z,100638.13
2018-08-11T21:00:30.568Z,100642.97
2018-08-11T21:03:01.518Z,100637.84
2018-08-11T21:05:32.535Z,100643.36
2018-08-11T21:08:03.469Z,100641.98
2018-08-11T21:10:34.544Z,100645.91
2018-08-11T21:13:05.616Z,100646.73
2018-08-11T21:15:36.519Z,100641.86
2018-08-11T21:18:07.498Z,100637.98
2018-08-11T21:20:38.515Z,100641.09
2018-08-11T21:23:09.494Z,100639.78
2018-08-11T21:25:40.513Z,100637.94
2018-08-11T21:28:11.475Z,100639.09
2018-08-11T21:30:42.518Z,100638.83
2018-08-11T21:33:13.559Z,100636.30
2018-08-11T21:35:44.487Z,100640.83
2018-08-11T21:38:15.485Z,100638.19
2018-08-11T21:40:46.543Z,100642.09
2018-08-11T21:43:17.482Z,100635.64
2018-08-11T21:45:48.496Z,100641.05
2018-08-11T21:48:19.508Z,100638.86
2018-08-11T21:50:50.487Z,100636.48
2018-08-11T21:53:21.528Z,100636.38
2018-08-11T21:55:52.472Z,100626.80
2018-08-11T21:58:23.513Z,100628.16
2018-08-11T22:00:57.297Z,100633.33
2018-08-11T22:03:28.403Z,100637.22
2018-08-11T22:05:59.501Z,100635.14
2018-08-11T22:08:30.497Z,100638.45
2018-08-11T22:11:01.482Z,100635.48
2018-08-11T22:13:32.478Z,100629.66
2018-08-11T22:16:05.387Z,100635.88
2018-08-11T22:18:37.022Z,100634.74
2018-08-11T22:21:08.355Z,100633.11
2018-08-11T22:23:39.480Z,100629.27
2018-08-11T22:26:10.485Z,100622.87
2018-08-11T22:28:41.461Z,100621.70
2018-08-11T22:31:12.486Z,100627.25
2018-08-11T22:33:43.473Z,100620.91
2018-08-11T22:36:14.509Z,100628.11
2018-08-11T22:38:45.533Z,100632.14
2018-08-11T22:41:16.500Z,100632.00
2018-08-11T22:43:47.481Z,100626.46
2018-08-11T22:46:18.504Z,100621.95
2018-08-11T22:48:49.467Z,100623.09
2018-08-11T22:51:20.564Z,100621.92
2018-08-11T22:53:51.455Z,100620.27
2018-08-11T22:56:22.690Z,100616.07
2018-08-11T22:58:53.542Z,100609.55
2018-08-11T23:01:24.474Z,100605.88
2018-08-11T23:03:55.476Z,100605.39
2018-08-11T23:06:26.533Z,100608.57
2018-08-11T23:08:57.472Z,100603.88
2018-08-11T23:11:28.500Z,100605.25
2018-08-11T23:13:59.478Z,100601.55
2018-08-11T23:16:30.468Z,100598.88
2018-08-11T23:19:01.482Z,100598.20
2018-08-11T23:21:32.409Z,100593.02
2018-08-11T23:24:03.448Z,100602.57
2018-08-11T23:26:34.428Z,100599.25
2018-08-11T23:31:50.360Z,100594.89
2018-08-11T23:34:21.338Z,100595.40
2018-08-11T23:36:52.381Z,100600.58
2018-08-11T23:39:23.481Z,100596.41
2018-08-11T23:41:54.556Z,100592.73
2018-08-11T23:44:25.509Z,100593.40
2018-08-11T23:46:56.485Z,100601.55
2018-08-11T23:49:27.497Z,100602.05
2018-08-11T23:51:58.498Z,100598.64
2018-08-11T23:54:29.502Z,100596.08
2018-08-11T23:57:00.509Z,100589.45
2018-08-11T23:59:31.736Z,100588.11
